Time,TemperatureF,DewpointF,PressureIn,WindDirection,WindDirectionDegrees,WindSpeedMPH,WindSpeedGustMPH,Humidity,HourlyPrecipIn,Conditions,Clouds,dailyrainin,SolarRadiationWatts/m^2,SoftwareType,DateUTC
2013-04-13 00:00:00,42.8,41.7,29.50,NE,38,0.0,0.0,96,0.00,,,0.44,0,WeatherCatV1.15B25,2013-04-13 04:00:00,
2013-04-13 00:01:00,42.8,41.7,29.50,NE,38,0.0,1.0,96,0.00,,,0.00,0,WeatherCatV1.15B25,2013-04-13 04:01:00,
2013-04-13 00:06:00,42.8,41.7,29.50,North,355,0.0,0.0,96,0.00,,,0.01,0,WeatherCatV1.15B25,2013-04-13 04:06:00,
2013-04-13 00:11:00,42.8,41.7,29.51,North,355,0.0,0.0,96,0.07,,,0.02,0,WeatherCatV1.15B25,2013-04-13 04:11:00,
2013-04-13 00:16:00,42.7,41.6,29.50,ENE,68,0.0,2.0,96,0.07,,,0.02,0,WeatherCatV1.15B25,2013-04-13 04:16:00,
2013-04-13 00:21:00,42.7,41.6,29.50,ENE,69,0.0,3.0,96,0.06,,,0.02,0,WeatherCatV1.15B25,2013-04-13 04:21:00,
2013-04-13 00:26:00,42.7,41.6,29.49,ENE,68,0.0,1.0,96,0.04,,,0.02,0,WeatherCatV1.15B25,2013-04-13 04:26:00,
2013-04-13 00:31:00,42.7,41.6,29.50,ENE,70,0.0,3.0,96,0.00,,,0.02,0,WeatherCatV1.15B25,2013-04-13 04:31:00,
2013-04-13 00:36:00,42.7,41.6,29.50,ENE,70,0.0,3.0,96,0.00,,,0.02,0,WeatherCatV1.15B25,2013-04-13 04:36:00,
2013-04-13 00:41:00,42.6,41.5,29.50,North,0,0.0,1.0,96,0.00,,,0.02,0,WeatherCatV1.15B25,2013-04-13 04:41:00,
2013-04-13 00:46:00,42.6,41.5,29.50,North,0,0.0,1.0,96,0.00,,,0.02,0,WeatherCatV1.15B25,2013-04-13 04:46:00,
2013-04-13 00:51:00,42.6,41.5,29.50,North,0,0.0,0.0,96,0.00,,,0.02,0,WeatherCatV1.15B25,2013-04-13 04:51:00,
2013-04-13 00:56:00,42.6,41.5,29.51,North,0,0.0,2.0,96,0.00,,,0.02,0,WeatherCatV1.15B25,2013-04-13 04:56:00,
2013-04-13 01:01:00,42.7,41.6,29.52,North,0,0.0,0.0,96,0.00,,,0.02,0,WeatherCatV1.15B25,2013-04-13 05:01:00,
2013-04-13 01:06:00,42.7,41.6,29.52,North,0,0.0,1.0,96,0.00,,,0.02,0,WeatherCatV1.15B25,2013-04-13 05:06:00,
2013-04-13 01:11:00,42.7,41.6,29.52,North,0,0.0,0.0,96,0.00,,,0.02,0,WeatherCatV1.15B25,2013-04-13 05:11:00,
2013-04-13 01:16:00,42.7,41.6,29.52,North,0,0.0,0.0,96,0.00,,,0.02,0,WeatherCatV1.15B25,2013-04-13 05:16:00,
2013-04-13 01:21:00,42.7,41.6,29.52,North,0,0.0,0.0,96,0.00,,,0.02,0,WeatherCatV1.15B25,2013-04-13 05:21:00,
2013-04-13 01:26:00,42.7,41.6,29.52,North,0,0.0,0.0,96,0.00,,,0.02,0,WeatherCatV1.15B25,2013-04-13 05:26:00,
2013-04-13 01:31:00,42.8,42.0,29.52,North,0,0.0,0.0,97,0.00,,,0.02,0,WeatherCatV1.15B25,2013-04-13 05:31:00,
2013-04-13 01:36:00,42.8,42.0,29.52,North,0,0.0,0.0,97,0.00,,,0.02,0,WeatherCatV1.15B25,2013-04-13 05:36:00,
2013-04-13 01:41:00,42.9,42.1,29.51,North,0,0.0,0.0,97,0.00,,,0.02,0,WeatherCatV1.15B25,2013-04-13 05:41:00,
2013-04-13 01:46:00,42.9,42.1,29.51,North,0,0.0,1.0,97,0.00,,,0.02,0,WeatherCatV1.15B25,2013-04-13 05:46:00,
2013-04-13 01:51:00,42.9,42.1,29.52,North,0,0.0,0.0,97,0.00,,,0.02,0,WeatherCatV1.15B25,2013-04-13 05:51:00,
2013-04-13 01:56:00,42.9,42.1,29.53,North,0,0.0,1.0,97,0.00,,,0.02,0,WeatherCatV1.15B25,2013-04-13 05:56:00,
2013-04-13 02:01:00,43.0,42.2,29.53,North,0,0.0,0.0,97,0.00,,,0.02,0,WeatherCatV1.15B25,2013-04-13 06:01:00,
2013-04-13 02:06:00,43.0,42.2,29.54,North,0,0.0,0.0,97,0.00,,,0.02,0,WeatherCatV1.15B25,2013-04-13 06:06:00,
2013-04-13 02:11:00,43.0,42.2,29.53,North,0,0.0,1.0,97,0.00,,,0.02,0,WeatherCatV1.15B25,2013-04-13 06:11:00,
2013-04-13 02:16:00,43.0,42.2,29.53,North,0,0.0,0.0,97,0.00,,,0.02,0,WeatherCatV1.15B25,2013-04-13 06:16:00,
2013-04-13 02:21:00,43.1,42.3,29.53,North,0,0.0,1.0,97,0.00,,,0.02,0,WeatherCatV1.15B25,2013-04-13 06:21:00,
2013-04-13 02:26:00,43.1,42.3,29.54,North,0,0.0,1.0,97,0.00,,,0.02,0,WeatherCatV1.15B25,2013-04-13 06:26:00,
2013-04-13 02:31:00,43.1,42.3,29.54,WNW,292,2.0,3.0,97,0.00,,,0.02,0,WeatherCatV1.15B25,2013-04-13 06:31:00,
2013-04-13 02:36:00,43.1,42.3,29.55,WNW,292,0.0,1.0,97,0.00,,,0.02,0,WeatherCatV1.15B25,2013-04-13 06:36:00,
2013-04-13 02:41:00,43.1,42.3,29.55,WNW,294,0.0,0.0,97,0.00,,,0.02,0,WeatherCatV1.15B25,2013-04-13 06:41:00,
2013-04-13 02:46:00,43.2,42.4,29.55,WNW,294,0.0,0.0,97,0.00,,,0.02,0,WeatherCatV1.15B25,2013-04-13 06:46:00,
2013-04-13 02:51:00,43.2,42.4,29.55,WNW,301,0.0,2.0,97,0.00,,,0.02,0,WeatherCatV1.15B25,2013-04-13 06:51:00,
2013-04-13 02:56:00,43.1,42.0,29.55,NNW,343,0.0,0.0,96,0.00,,,0.02,0,WeatherCatV1.15B25,2013-04-13 06:56:00,
2013-04-13 03:01:00,43.1,42.0,29.55,NNW,343,0.0,0.0,96,0.00,,,0.02,0,WeatherCatV1.15B25,2013-04-13 07:01:00,
2013-04-13 03:06:00,43.1,42.0,29.55,WNW,300,0.0,0.0,96,0.00,,,0.02,0,WeatherCatV1.15B25,2013-04-13 07:06:00,
2013-04-13 03:11:00,43.1,42.0,29.55,NE,38,0.0,0.0,96,0.00,,,0.02,0,WeatherCatV1.15B25,2013-04-13 07:11:00,
2013-04-13 03:16:00,43.1,42.0,29.55,NE,38,0.0,0.0,96,0.00,,,0.02,0,WeatherCatV1.15B25,2013-04-13 07:16:00,
2013-04-13 03:21:00,43.0,41.9,29.55,NE,38,0.0,0.0,96,0.00,,,0.02,0,WeatherCatV1.15B25,2013-04-13 07:21:00,
2013-04-13 03:26:00,43.0,41.9,29.55,NE,36,1.0,1.0,96,0.00,,,0.02,0,WeatherCatV1.15B25,2013-04-13 07:26:00,
2013-04-13 03:31:00,42.9,41.8,29.56,NE,36,0.0,0.0,96,0.00,,,0.02,0,WeatherCatV1.15B25,2013-04-13 07:31:00,
2013-04-13 03:36:00,42.9,41.6,29.56,NE,36,0.0,0.0,95,0.00,,,0.02,0,WeatherCatV1.15B25,2013-04-13 07:36:00,
2013-04-13 03:41:00,42.8,41.5,29.56,NE,36,0.0,0.0,95,0.00,,,0.02,0,WeatherCatV1.15B25,2013-04-13 07:41:00,
2013-04-13 03:46:00,42.8,41.5,29.56,NE,36,0.0,0.0,95,0.00,,,0.02,0,WeatherCatV1.15B25,2013-04-13 07:46:00,
2013-04-13 03:51:00,42.7,41.4,29.56,NE,36,0.0,0.0,95,0.00,,,0.02,0,WeatherCatV1.15B25,2013-04-13 07:51:00,
2013-04-13 03:56:00,42.7,41.4,29.56,NE,36,0.0,0.0,95,0.00,,,0.02,0,WeatherCatV1.15B25,2013-04-13 07:56:00,
2013-04-13 04:01:00,42.5,41.2,29.55,NE,36,0.0,0.0,95,0.00,,,0.02,0,WeatherCatV1.15B25,2013-04-13 08:01:00,
2013-04-13 04:06:00,42.5,41.2,29.56,NE,36,0.0,0.0,95,0.00,,,0.02,0,WeatherCatV1.15B25,2013-04-13 08:06:00,
2013-04-13 04:11:00,42.4,41.1,29.56,NE,36,0.0,0.0,95,0.00,,,0.02,0,WeatherCatV1.15B25,2013-04-13 08:11:00,
2013-04-13 04:16:00,42.3,40.7,29.57,NE,36,0.0,0.0,94,0.00,,,0.02,0,WeatherCatV1.15B25,2013-04-13 08:16:00,
2013-04-13 04:21:00,42.2,40.6,29.57,NE,36,0.0,0.0,94,0.00,,,0.02,0,WeatherCatV1.15B25,2013-04-13 08:21:00,
2013-04-13 04:26:00,42.0,40.4,29.57,NE,36,0.0,0.0,94,0.00,,,0.02,0,WeatherCatV1.15B25,2013-04-13 08:26:00,
2013-04-13 04:31:00,41.9,40.3,29.58,NE,36,0.0,0.0,94,0.00,,,0.02,0,WeatherCatV1.15B25,2013-04-13 08:31:00,
2013-04-13 04:36:00,41.7,40.1,29.57,NE,36,0.0,0.0,94,0.00,,,0.02,0,WeatherCatV1.15B25,2013-04-13 08:36:00,
2013-04-13 04:41:00,41.6,40.0,29.57,NE,36,0.0,0.0,94,0.00,,,0.02,0,WeatherCatV1.15B25,2013-04-13 08:41:00,
2013-04-13 04:46:00,41.4,39.8,29.57,NE,36,0.0,0.0,94,0.00,,,0.02,0,WeatherCatV1.15B25,2013-04-13 08:46:00,
2013-04-13 04:51:00,41.3,39.7,29.58,NE,36,0.0,0.0,94,0.00,,,0.02,0,WeatherCatV1.15B25,2013-04-13 08:51:00,
2013-04-13 04:56:00,41.1,39.5,29.58,NE,36,0.0,0.0,94,0.00,,,0.02,0,WeatherCatV1.15B25,2013-04-13 08:56:00,
2013-04-13 05:01:00,41.0,39.4,29.57,NE,36,0.0,0.0,94,0.00,,,0.02,0,WeatherCatV1.15B25,2013-04-13 09:01:00,
2013-04-13 05:06:00,40.7,39.1,29.57,NE,36,0.0,0.0,94,0.00,,,0.02,0,WeatherCatV1.15B25,2013-04-13 09:06:00,
2013-04-13 05:11:00,40.4,38.8,29.58,NE,36,0.0,0.0,94,0.00,,,0.02,0,WeatherCatV1.15B25,2013-04-13 09:11:00,
2013-04-13 05:16:00,40.2,38.6,29.57,NE,36,0.0,0.0,94,0.00,,,0.02,0,WeatherCatV1.15B25,2013-04-13 09:16:00,
2013-04-13 05:21:00,39.9,38.3,29.58,NE,36,0.0,0.0,94,0.00,,,0.02,0,WeatherCatV1.15B25,2013-04-13 09:21:00,
2013-04-13 05:26:00,39.7,38.1,29.58,NE,36,0.0,0.0,94,0.00,,,0.02,0,WeatherCatV1.15B25,2013-04-13 09:26:00,
2013-04-13 05:31:00,39.6,38.0,29.58,NE,36,0.0,0.0,94,0.00,,,0.02,0,WeatherCatV1.15B25,2013-04-13 09:31:00,
2013-04-13 05:36:00,39.3,37.7,29.58,NE,36,0.0,0.0,94,0.00,,,0.02,0,WeatherCatV1.15B25,2013-04-13 09:36:00,
2013-04-13 05:41:00,39.1,37.5,29.58,NE,36,0.0,0.0,94,0.00,,,0.02,0,WeatherCatV1.15B25,2013-04-13 09:41:00,
2013-04-13 05:46:00,38.9,37.3,29.58,NE,36,0.0,0.0,94,0.00,,,0.02,0,WeatherCatV1.15B25,2013-04-13 09:46:00,
2013-04-13 05:51:00,38.7,37.1,29.58,NE,36,0.0,0.0,94,0.00,,,0.02,0,WeatherCatV1.15B25,2013-04-13 09:51:00,
2013-04-13 05:56:00,38.5,36.9,29.59,NE,36,0.0,0.0,94,0.00,,,0.02,0,WeatherCatV1.15B25,2013-04-13 09:56:00,
2013-04-13 06:01:00,38.4,36.8,29.59,NE,36,0.0,0.0,94,0.00,,,0.02,0,WeatherCatV1.15B25,2013-04-13 10:01:00,
2013-04-13 06:07:00,38.2,36.6,29.59,NE,36,0.0,0.0,94,0.00,,,0.02,0,WeatherCatV1.15B25,2013-04-13 10:07:00,
2013-04-13 06:12:00,38.0,36.4,29.59,NE,36,0.0,0.0,94,0.00,,,0.02,0,WeatherCatV1.15B25,2013-04-13 10:12:00,
2013-04-13 06:17:00,37.9,36.3,29.59,NE,36,0.0,0.0,94,0.00,,,0.02,0,WeatherCatV1.15B25,2013-04-13 10:17:00,
2013-04-13 06:22:00,37.8,36.5,29.60,NE,36,0.0,0.0,95,0.00,,,0.02,0,WeatherCatV1.15B25,2013-04-13 10:22:00,
2013-04-13 06:27:00,37.8,36.5,29.60,NE,36,0.0,0.0,95,0.00,,,0.02,0,WeatherCatV1.15B25,2013-04-13 10:27:00,
2013-04-13 06:32:00,37.8,36.5,29.60,NE,36,0.0,0.0,95,0.00,,,0.02,0,WeatherCatV1.15B25,2013-04-13 10:32:00,
2013-04-13 06:37:00,37.8,36.5,29.60,NE,36,0.0,0.0,95,0.00,,,0.02,5,WeatherCatV1.15B25,2013-04-13 10:37:00,
2013-04-13 06:42:00,37.9,36.6,29.60,NE,36,0.0,0.0,95,0.00,,,0.02,9,WeatherCatV1.15B25,2013-04-13 10:42:00,
2013-04-13 06:47:00,37.9,36.6,29.60,NE,36,0.0,0.0,95,0.00,,,0.02,11,WeatherCatV1.15B25,2013-04-13 10:47:00,
2013-04-13 06:52:00,38.1,37.1,29.60,NE,36,0.0,0.0,96,0.00,,,0.02,12,WeatherCatV1.15B25,2013-04-13 10:52:00,
2013-04-13 06:57:00,38.2,37.2,29.60,NE,36,0.0,0.0,96,0.00,,,0.02,12,WeatherCatV1.15B25,2013-04-13 10:57:00,
2013-04-13 07:02:00,38.4,37.4,29.60,NE,36,0.0,0.0,96,0.00,,,0.02,16,WeatherCatV1.15B25,2013-04-13 11:02:00,
2013-04-13 07:07:00,38.7,37.7,29.59,NE,36,0.0,0.0,96,0.00,,,0.02,18,WeatherCatV1.15B25,2013-04-13 11:07:00,
2013-04-13 07:12:00,38.8,38.0,29.59,NE,36,0.0,0.0,97,0.00,,,0.02,21,WeatherCatV1.15B25,2013-04-13 11:12:00,
2013-04-13 07:17:00,38.8,38.0,29.59,NE,36,0.0,0.0,97,0.00,,,0.02,25,WeatherCatV1.15B25,2013-04-13 11:17:00,
2013-04-13 07:22:00,38.9,38.1,29.59,NE,36,0.0,0.0,97,0.00,,,0.02,26,WeatherCatV1.15B25,2013-04-13 11:22:00,
2013-04-13 07:27:00,39.1,38.3,29.60,NE,36,0.0,0.0,97,0.00,,,0.02,30,WeatherCatV1.15B25,2013-04-13 11:27:00,
2013-04-13 07:32:00,39.2,38.4,29.60,NE,36,0.0,0.0,97,0.00,,,0.02,39,WeatherCatV1.15B25,2013-04-13 11:32:00,
2013-04-13 07:37:00,39.4,38.6,29.60,NE,36,0.0,0.0,97,0.00,,,0.02,40,WeatherCatV1.15B25,2013-04-13 11:37:00,
2013-04-13 07:42:00,39.6,38.8,29.60,NE,36,0.0,0.0,97,0.00,,,0.02,46,WeatherCatV1.15B25,2013-04-13 11:42:00,
2013-04-13 07:47:00,39.8,39.0,29.61,NE,36,0.0,0.0,97,0.00,,,0.02,33,WeatherCatV1.15B25,2013-04-13 11:47:00,
2013-04-13 07:52:00,39.9,39.1,29.60,NE,36,0.0,0.0,97,0.00,,,0.02,42,WeatherCatV1.15B25,2013-04-13 11:52:00,
2013-04-13 07:57:00,40.2,39.4,29.60,NE,36,0.0,0.0,97,0.00,,,0.02,54,WeatherCatV1.15B25,2013-04-13 11:57:00,
2013-04-13 08:02:00,40.5,40.0,29.61,NE,36,0.0,0.0,98,0.00,,,0.02,46,WeatherCatV1.15B25,2013-04-13 12:02:00,
2013-04-13 08:07:00,40.9,40.4,29.61,NE,53,0.0,0.0,98,0.00,,,0.02,35,WeatherCatV1.15B25,2013-04-13 12:07:00,
2013-04-13 08:12:00,41.3,40.8,29.62,NE,53,0.0,0.0,98,0.00,,,0.02,39,WeatherCatV1.15B25,2013-04-13 12:12:00,
2013-04-13 08:17:00,41.7,41.2,29.62,NE,53,0.0,0.0,98,0.00,,,0.02,76,WeatherCatV1.15B25,2013-04-13 12:17:00,
2013-04-13 08:22:00,42.1,41.6,29.62,NE,53,0.0,2.0,98,0.00,,,0.02,149,WeatherCatV1.15B25,2013-04-13 12:22:00,
2013-04-13 08:27:00,42.3,41.8,29.63,NE,53,0.0,0.0,98,0.00,,,0.02,90,WeatherCatV1.15B25,2013-04-13 12:27:00,
2013-04-13 08:32:00,42.5,42.0,29.63,NE,53,0.0,1.0,98,0.00,,,0.02,72,WeatherCatV1.15B25,2013-04-13 12:32:00,
2013-04-13 08:37:00,42.8,42.3,29.63,NE,53,0.0,0.0,98,0.00,,,0.02,49,WeatherCatV1.15B25,2013-04-13 12:37:00,
2013-04-13 08:42:00,43.0,42.5,29.63,NE,53,0.0,0.0,98,0.00,,,0.02,90,WeatherCatV1.15B25,2013-04-13 12:42:00,
2013-04-13 08:47:00,43.2,42.7,29.63,NE,53,0.0,1.0,98,0.00,,,0.02,146,WeatherCatV1.15B25,2013-04-13 12:47:00,
2013-04-13 08:52:00,43.4,42.9,29.63,NE,53,0.0,0.0,98,0.00,,,0.02,163,WeatherCatV1.15B25,2013-04-13 12:52:00,
2013-04-13 08:57:00,43.6,43.1,29.63,NE,53,0.0,0.0,98,0.00,,,0.02,148,WeatherCatV1.15B25,2013-04-13 12:57:00,
2013-04-13 09:02:00,43.8,43.0,29.63,NE,53,0.0,0.0,97,0.00,,,0.02,93,WeatherCatV1.15B25,2013-04-13 13:02:00,
2013-04-13 09:07:00,44.1,43.3,29.63,NE,53,0.0,1.0,97,0.00,,,0.02,102,WeatherCatV1.15B25,2013-04-13 13:07:00,
2013-04-13 09:12:00,44.5,43.7,29.63,NE,53,1.0,1.0,97,0.00,,,0.02,195,WeatherCatV1.15B25,2013-04-13 13:12:00,
2013-04-13 09:17:00,44.9,44.1,29.63,South,182,0.0,0.0,97,0.00,,,0.02,158,WeatherCatV1.15B25,2013-04-13 13:17:00,
2013-04-13 09:22:00,45.3,44.0,29.64,WSW,239,1.0,3.0,95,0.00,,,0.02,186,WeatherCatV1.15B25,2013-04-13 13:22:00,
2013-04-13 09:27:00,45.7,43.2,29.64,West,263,0.0,1.0,91,0.00,,,0.02,207,WeatherCatV1.15B25,2013-04-13 13:27:00,
2013-04-13 09:32:00,46.2,43.4,29.63,West,273,1.0,2.0,90,0.00,,,0.02,188,WeatherCatV1.15B25,2013-04-13 13:32:00,
2013-04-13 09:37:00,46.8,42.8,29.64,West,265,2.0,3.0,86,0.00,,,0.02,178,WeatherCatV1.15B25,2013-04-13 13:37:00,
2013-04-13 09:42:00,47.3,43.3,29.64,West,263,0.0,1.0,86,0.00,,,0.02,163,WeatherCatV1.15B25,2013-04-13 13:42:00,
2013-04-13 09:47:00,47.6,41.7,29.64,NNW,338,0.0,3.0,80,0.00,,,0.02,141,WeatherCatV1.15B25,2013-04-13 13:47:00,
2013-04-13 09:52:00,48.0,42.1,29.64,NNW,338,0.0,1.0,80,0.00,,,0.02,105,WeatherCatV1.15B25,2013-04-13 13:52:00,
2013-04-13 09:57:00,48.3,42.4,29.64,NNW,338,0.0,1.0,80,0.00,,,0.02,81,WeatherCatV1.15B25,2013-04-13 13:57:00,
2013-04-13 10:02:00,48.5,41.6,29.65,West,274,2.0,4.0,77,0.00,,,0.02,58,WeatherCatV1.15B25,2013-04-13 14:02:00,
2013-04-13 10:08:00,48.7,41.8,29.65,WNW,303,3.0,5.0,77,0.00,,,0.02,111,WeatherCatV1.15B25,2013-04-13 14:08:00,
2013-04-13 10:13:00,48.8,42.2,29.65,WNW,298,2.0,6.0,78,0.00,,,0.02,144,WeatherCatV1.15B25,2013-04-13 14:13:00,
2013-04-13 10:18:00,48.9,40.3,29.64,WNW,302,0.0,6.0,72,0.00,,,0.02,211,WeatherCatV1.15B25,2013-04-13 14:18:00,
2013-04-13 10:23:00,49.6,38.7,29.64,North,0,0.0,4.0,66,0.00,,,0.02,204,WeatherCatV1.15B25,2013-04-13 14:23:00,
2013-04-13 10:28:00,49.9,37.4,29.65,NNW,329,5.0,7.0,62,0.00,,,0.02,169,WeatherCatV1.15B25,2013-04-13 14:28:00,
2013-04-13 10:33:00,49.9,37.8,29.64,NNW,327,4.0,4.0,63,0.00,,,0.02,195,WeatherCatV1.15B25,2013-04-13 14:33:00,
2013-04-13 10:38:00,50.1,36.8,29.64,West,265,3.0,9.0,60,0.00,,,0.02,220,WeatherCatV1.15B25,2013-04-13 14:38:00,
2013-04-13 10:43:00,50.2,37.3,29.64,NNW,327,1.0,5.0,61,0.00,,,0.02,221,WeatherCatV1.15B25,2013-04-13 14:43:00,
2013-04-13 10:48:00,50.6,38.5,29.65,SW,236,0.0,2.0,63,0.00,,,0.02,464,WeatherCatV1.15B25,2013-04-13 14:48:00,
2013-04-13 10:53:00,50.9,37.9,29.65,NW,317,3.0,6.0,61,0.00,,,0.02,255,WeatherCatV1.15B25,2013-04-13 14:53:00,
2013-04-13 10:58:00,51.0,36.7,29.65,North,355,2.0,3.0,58,0.00,,,0.02,258,WeatherCatV1.15B25,2013-04-13 14:58:00,
2013-04-13 11:03:00,51.0,36.3,29.65,North,0,3.0,7.0,57,0.00,,,0.02,271,WeatherCatV1.15B25,2013-04-13 15:03:00,
2013-04-13 11:08:00,50.9,37.1,29.65,North,5,2.0,7.0,59,0.00,,,0.02,202,WeatherCatV1.15B25,2013-04-13 15:08:00,
2013-04-13 11:13:00,50.9,37.1,29.65,North,5,1.0,4.0,59,0.00,,,0.02,188,WeatherCatV1.15B25,2013-04-13 15:13:00,
2013-04-13 11:18:00,50.9,37.5,29.65,NNE,23,1.0,1.0,60,0.00,,,0.02,160,WeatherCatV1.15B25,2013-04-13 15:18:00,
2013-04-13 11:23:00,51.0,37.6,29.65,SSW,200,3.0,4.0,60,0.00,,,0.02,422,WeatherCatV1.15B25,2013-04-13 15:23:00,
2013-04-13 11:28:00,51.2,37.4,29.65,West,265,7.0,7.0,59,0.00,,,0.02,360,WeatherCatV1.15B25,2013-04-13 15:28:00,
2013-04-13 11:33:00,51.7,36.1,29.65,WNW,286,4.0,5.0,55,0.00,,,0.02,197,WeatherCatV1.15B25,2013-04-13 15:33:00,
2013-04-13 11:38:00,52.2,35.6,29.65,SSE,158,1.0,6.0,53,0.00,,,0.02,285,WeatherCatV1.15B25,2013-04-13 15:38:00,
2013-04-13 11:43:00,52.4,36.7,29.65,West,267,0.0,3.0,55,0.00,,,0.02,304,WeatherCatV1.15B25,2013-04-13 15:43:00,
2013-04-13 11:48:00,53.3,36.1,29.65,West,269,4.0,5.0,52,0.00,,,0.02,851,WeatherCatV1.15B25,2013-04-13 15:48:00,
2013-04-13 11:53:00,53.6,34.9,29.65,NNE,19,2.0,7.0,49,0.00,,,0.02,367,WeatherCatV1.15B25,2013-04-13 15:53:00,
2013-04-13 11:58:00,54.0,37.3,29.65,WSW,256,5.0,6.0,53,0.00,,,0.02,543,WeatherCatV1.15B25,2013-04-13 15:58:00,
2013-04-13 12:03:00,54.1,36.4,29.64,NNW,333,2.0,8.0,51,0.00,,,0.02,341,WeatherCatV1.15B25,2013-04-13 16:03:00,
2013-04-13 12:08:00,54.2,35.5,29.64,WNW,289,1.0,7.0,49,0.00,,,0.02,265,WeatherCatV1.15B25,2013-04-13 16:08:00,
2013-04-13 12:13:00,54.0,35.8,29.64,NE,35,1.0,5.0,50,0.00,,,0.02,392,WeatherCatV1.15B25,2013-04-13 16:13:00,
2013-04-13 12:18:00,54.1,36.4,29.64,North,0,3.0,5.0,51,0.00,,,0.02,302,WeatherCatV1.15B25,2013-04-13 16:18:00,
2013-04-13 12:23:00,53.9,35.2,29.63,NNE,31,1.0,4.0,49,0.00,,,0.02,278,WeatherCatV1.15B25,2013-04-13 16:23:00,
2013-04-13 12:28:00,53.7,35.5,29.63,North,9,1.0,1.0,50,0.00,,,0.02,392,WeatherCatV1.15B25,2013-04-13 16:28:00,
2013-04-13 12:33:00,53.8,36.1,29.63,NNW,330,0.0,6.0,51,0.00,,,0.02,441,WeatherCatV1.15B25,2013-04-13 16:33:00,
2013-04-13 12:38:00,53.7,35.5,29.63,WNW,298,8.0,8.0,50,0.00,,,0.02,951,WeatherCatV1.15B25,2013-04-13 16:38:00,
2013-04-13 12:43:00,54.6,35.3,29.63,SSW,209,4.0,6.0,48,0.00,,,0.02,870,WeatherCatV1.15B25,2013-04-13 16:43:00,
2013-04-13 12:48:00,54.8,36.0,29.63,WSW,250,3.0,6.0,49,0.00,,,0.02,782,WeatherCatV1.15B25,2013-04-13 16:48:00,
2013-04-13 12:53:00,55.5,38.6,29.62,WNW,288,3.0,6.0,53,0.00,,,0.02,480,WeatherCatV1.15B25,2013-04-13 16:53:00,
2013-04-13 12:58:00,55.6,35.2,29.62,WNW,285,1.0,5.0,46,0.00,,,0.02,236,WeatherCatV1.15B25,2013-04-13 16:58:00,
2013-04-13 13:03:00,54.8,35.0,29.62,NNW,342,1.0,6.0,47,0.00,,,0.02,223,WeatherCatV1.15B25,2013-04-13 17:03:00,
2013-04-13 13:08:00,55.7,37.3,29.62,WNW,294,2.0,9.0,50,0.00,,,0.02,965,WeatherCatV1.15B25,2013-04-13 17:08:00,
2013-04-13 13:13:00,55.8,35.9,29.62,West,277,2.0,5.0,47,0.00,,,0.02,380,WeatherCatV1.15B25,2013-04-13 17:13:00,
2013-04-13 13:18:00,55.9,35.4,29.62,West,266,1.0,5.0,46,0.00,,,0.02,350,WeatherCatV1.15B25,2013-04-13 17:18:00,
2013-04-13 13:23:00,56.0,36.6,29.62,WNW,302,5.0,8.0,48,0.00,,,0.02,411,WeatherCatV1.15B25,2013-04-13 17:23:00,
2013-04-13 13:28:00,56.4,37.5,29.62,SW,215,5.0,7.0,49,0.00,,,0.02,1169,WeatherCatV1.15B25,2013-04-13 17:28:00,
2013-04-13 13:33:00,56.0,36.1,29.62,NW,315,2.0,8.0,47,0.00,,,0.02,554,WeatherCatV1.15B25,2013-04-13 17:33:00,
2013-04-13 13:38:00,55.9,37.0,29.62,SW,223,4.0,6.0,49,0.00,,,0.02,299,WeatherCatV1.15B25,2013-04-13 17:38:00,
2013-04-13 13:43:00,55.9,36.5,29.62,WSW,250,4.0,8.0,48,0.00,,,0.02,274,WeatherCatV1.15B25,2013-04-13 17:43:00,
2013-04-13 13:48:00,56.0,36.1,29.62,NW,308,6.0,9.0,47,0.00,,,0.02,248,WeatherCatV1.15B25,2013-04-13 17:48:00,
2013-04-13 13:53:00,55.8,37.4,29.62,NW,313,3.0,4.0,50,0.00,,,0.02,267,WeatherCatV1.15B25,2013-04-13 17:53:00,
2013-04-13 13:58:00,56.3,36.9,29.62,SSW,213,0.0,4.0,48,0.00,,,0.02,267,WeatherCatV1.15B25,2013-04-13 17:58:00,
2013-04-13 14:03:00,56.6,36.6,29.62,SW,222,4.0,8.0,47,0.00,,,0.02,353,WeatherCatV1.15B25,2013-04-13 18:03:00,
2013-04-13 14:08:00,56.8,37.8,29.62,SSW,212,1.0,6.0,49,0.00,,,0.02,411,WeatherCatV1.15B25,2013-04-13 18:08:00,
2013-04-13 14:13:00,57.2,36.1,29.61,West,277,7.0,10.0,45,0.00,,,0.02,1013,WeatherCatV1.15B25,2013-04-13 18:13:00,
2013-04-13 14:18:00,58.1,37.4,29.61,West,267,3.0,11.0,46,0.00,,,0.02,1039,WeatherCatV1.15B25,2013-04-13 18:18:00,
2013-04-13 14:23:00,58.1,36.9,29.61,SSE,162,3.0,7.0,45,0.00,,,0.02,942,WeatherCatV1.15B25,2013-04-13 18:23:00,
2013-04-13 14:27:00,58.3,37.6,29.61,WNW,285,4.0,11.0,46,0.00,,,0.02,229,WeatherCatV1.15B25,2013-04-13 18:27:00,
2013-04-13 14:31:00,58.2,37.5,29.61,NW,326,5.0,11.0,46,0.00,,,0.02,965,WeatherCatV1.15B25,2013-04-13 18:31:00,
2013-04-13 14:36:00,58.6,36.8,29.61,WNW,288,0.0,9.0,44,0.00,,,0.02,958,WeatherCatV1.15B25,2013-04-13 18:36:00,
2013-04-13 14:41:00,58.6,36.2,29.61,South,182,2.0,12.0,43,0.00,,,0.02,265,WeatherCatV1.15B25,2013-04-13 18:41:00,
2013-04-13 14:46:00,58.4,37.1,29.61,West,261,3.0,11.0,45,0.00,,,0.02,956,WeatherCatV1.15B25,2013-04-13 18:46:00,
2013-04-13 14:51:00,58.8,37.5,29.61,SSW,200,6.0,7.0,45,0.00,,,0.02,967,WeatherCatV1.15B25,2013-04-13 18:51:00,
2013-04-13 14:56:00,58.1,35.7,29.61,WSW,239,3.0,8.0,43,0.00,,,0.02,308,WeatherCatV1.15B25,2013-04-13 18:56:00,
2013-04-13 15:01:00,57.6,36.4,29.61,WSW,257,3.0,6.0,45,0.00,,,0.02,269,WeatherCatV1.15B25,2013-04-13 19:01:00,
2013-04-13 15:06:00,57.6,37.0,29.61,WNW,288,3.0,5.0,46,0.00,,,0.02,380,WeatherCatV1.15B25,2013-04-13 19:06:00,
2013-04-13 15:11:00,57.8,37.2,29.62,WNW,290,1.0,7.0,46,0.00,,,0.02,272,WeatherCatV1.15B25,2013-04-13 19:11:00,
2013-04-13 15:16:00,57.7,36.5,29.61,West,261,4.0,6.0,45,0.00,,,0.02,207,WeatherCatV1.15B25,2013-04-13 19:16:00,
2013-04-13 15:21:00,57.5,37.4,29.62,WNW,294,2.0,3.0,47,0.00,,,0.02,227,WeatherCatV1.15B25,2013-04-13 19:21:00,
2013-04-13 15:26:00,57.6,36.4,29.62,West,271,0.0,8.0,45,0.00,,,0.02,267,WeatherCatV1.15B25,2013-04-13 19:26:00,
2013-04-13 15:31:00,57.6,36.4,29.61,West,275,7.0,9.0,45,0.00,,,0.02,223,WeatherCatV1.15B25,2013-04-13 19:31:00,
2013-04-13 15:36:00,57.5,36.3,29.62,South,189,6.0,10.0,45,0.00,,,0.02,246,WeatherCatV1.15B25,2013-04-13 19:36:00,
2013-04-13 15:41:00,57.4,36.2,29.62,West,274,7.0,7.0,45,0.00,,,0.02,237,WeatherCatV1.15B25,2013-04-13 19:41:00,
2013-04-13 15:46:00,57.5,36.9,29.62,NNW,336,2.0,4.0,46,0.00,,,0.02,295,WeatherCatV1.15B25,2013-04-13 19:46:00,
2013-04-13 15:51:00,57.4,36.8,29.61,SW,234,3.0,7.0,46,0.00,,,0.02,216,WeatherCatV1.15B25,2013-04-13 19:51:00,
2013-04-13 15:56:00,57.6,36.4,29.61,WSW,252,4.0,7.0,45,0.00,,,0.02,267,WeatherCatV1.15B25,2013-04-13 19:56:00,
2013-04-13 16:01:00,57.8,36.6,29.61,SW,218,2.0,9.0,45,0.00,,,0.02,225,WeatherCatV1.15B25,2013-04-13 20:01:00,
2013-04-13 16:06:00,58.1,37.4,29.61,SSW,202,2.0,9.0,46,0.00,,,0.02,664,WeatherCatV1.15B25,2013-04-13 20:06:00,
2013-04-13 16:11:00,58.3,36.5,29.61,South,170,6.0,10.0,44,0.00,,,0.02,218,WeatherCatV1.15B25,2013-04-13 20:11:00,
2013-04-13 16:16:00,58.3,37.1,29.61,SW,230,6.0,10.0,45,0.00,,,0.02,745,WeatherCatV1.15B25,2013-04-13 20:16:00,
2013-04-13 16:21:00,58.4,37.1,29.61,SW,222,5.0,9.0,45,0.00,,,0.02,123,WeatherCatV1.15B25,2013-04-13 20:21:00,
2013-04-13 16:26:00,58.2,37.5,29.61,West,275,3.0,6.0,46,0.00,,,0.02,643,WeatherCatV1.15B25,2013-04-13 20:26:00,
2013-04-13 16:31:00,58.3,37.1,29.61,SW,228,4.0,6.0,45,0.00,,,0.02,155,WeatherCatV1.15B25,2013-04-13 20:31:00,
2013-04-13 16:36:00,58.1,36.3,29.61,West,279,5.0,8.0,44,0.00,,,0.02,197,WeatherCatV1.15B25,2013-04-13 20:36:00,
2013-04-13 16:41:00,57.8,36.0,29.61,West,263,3.0,10.0,44,0.00,,,0.02,151,WeatherCatV1.15B25,2013-04-13 20:41:00,
2013-04-13 16:46:00,57.6,36.4,29.61,WSW,246,1.0,8.0,45,0.00,,,0.02,158,WeatherCatV1.15B25,2013-04-13 20:46:00,
2013-04-13 16:51:00,57.6,37.0,29.62,WNW,296,3.0,7.0,46,0.00,,,0.02,160,WeatherCatV1.15B25,2013-04-13 20:51:00,
2013-04-13 16:56:00,57.6,38.1,29.62,WSW,239,2.0,8.0,48,0.00,,,0.02,116,WeatherCatV1.15B25,2013-04-13 20:56:00,
2013-04-13 17:01:00,57.8,37.2,29.62,WSW,250,2.0,3.0,46,0.00,,,0.02,132,WeatherCatV1.15B25,2013-04-13 21:01:00,
2013-04-13 17:06:00,58.0,36.8,29.62,SSE,160,5.0,8.0,45,0.00,,,0.02,95,WeatherCatV1.15B25,2013-04-13 21:06:00,
2013-04-13 17:11:00,58.2,36.4,29.62,WSW,243,6.0,8.0,44,0.00,,,0.02,434,WeatherCatV1.15B25,2013-04-13 21:11:00,
2013-04-13 17:16:00,58.4,37.7,29.62,WNW,288,1.0,5.0,46,0.00,,,0.02,427,WeatherCatV1.15B25,2013-04-13 21:16:00,
2013-04-13 17:21:00,58.5,36.1,29.62,WNW,293,2.0,7.0,43,0.00,,,0.02,139,WeatherCatV1.15B25,2013-04-13 21:21:00,
2013-04-13 17:26:00,58.5,36.1,29.62,WSW,244,3.0,17.0,43,0.00,,,0.02,387,WeatherCatV1.15B25,2013-04-13 21:26:00,
2013-04-13 17:31:00,58.6,36.2,29.62,SW,229,3.0,7.0,43,0.00,,,0.02,107,WeatherCatV1.15B25,2013-04-13 21:31:00,
2013-04-13 17:36:00,58.7,35.7,29.62,WNW,293,3.0,7.0,42,0.00,,,0.02,345,WeatherCatV1.15B25,2013-04-13 21:36:00,
2013-04-13 17:41:00,58.7,36.3,29.61,NW,325,4.0,7.0,43,0.00,,,0.02,290,WeatherCatV1.15B25,2013-04-13 21:41:00,
2013-04-13 17:46:00,58.7,35.7,29.61,West,264,5.0,7.0,42,0.00,,,0.02,236,WeatherCatV1.15B25,2013-04-13 21:46:00,
2013-04-13 17:51:00,58.6,36.2,29.61,NW,323,1.0,4.0,43,0.00,,,0.02,278,WeatherCatV1.15B25,2013-04-13 21:51:00,
2013-04-13 17:56:00,58.6,36.2,29.61,WNW,295,2.0,5.0,43,0.00,,,0.02,62,WeatherCatV1.15B25,2013-04-13 21:56:00,
2013-04-13 18:01:00,58.5,35.5,29.61,WSW,253,2.0,8.0,42,0.00,,,0.02,60,WeatherCatV1.15B25,2013-04-13 22:01:00,
2013-04-13 18:06:00,58.4,36.0,29.62,West,277,3.0,6.0,43,0.00,,,0.02,202,WeatherCatV1.15B25,2013-04-13 22:06:00,
2013-04-13 18:11:00,58.4,36.0,29.63,West,281,2.0,3.0,43,0.00,,,0.02,72,WeatherCatV1.15B25,2013-04-13 22:11:00,
2013-04-13 18:16:00,58.1,36.3,29.64,NW,306,0.0,2.0,44,0.00,,,0.02,77,WeatherCatV1.15B25,2013-04-13 22:16:00,
2013-04-13 18:21:00,57.9,35.5,29.64,West,263,2.0,6.0,43,0.00,,,0.02,91,WeatherCatV1.15B25,2013-04-13 22:21:00,
2013-04-13 18:26:00,57.7,36.5,29.64,WNW,290,6.0,6.0,45,0.00,,,0.02,70,WeatherCatV1.15B25,2013-04-13 22:26:00,
2013-04-13 18:31:00,57.6,36.4,29.64,SW,232,4.0,4.0,45,0.00,,,0.02,113,WeatherCatV1.15B25,2013-04-13 22:31:00,
2013-04-13 18:36:00,57.6,36.4,29.64,SW,221,4.0,4.0,45,0.00,,,0.02,86,WeatherCatV1.15B25,2013-04-13 22:36:00,
2013-04-13 18:41:00,57.6,36.4,29.64,WSW,252,1.0,5.0,45,0.00,,,0.02,63,WeatherCatV1.15B25,2013-04-13 22:41:00,
2013-04-13 18:46:00,57.5,36.3,29.64,SW,225,2.0,5.0,45,0.00,,,0.02,42,WeatherCatV1.15B25,2013-04-13 22:46:00,
2013-04-13 18:51:00,57.3,36.1,29.64,West,259,1.0,4.0,45,0.00,,,0.02,25,WeatherCatV1.15B25,2013-04-13 22:51:00,
2013-04-13 18:56:00,57.1,36.0,29.64,West,262,0.0,2.0,45,0.00,,,0.02,21,WeatherCatV1.15B25,2013-04-13 22:56:00,
2013-04-13 19:01:00,56.8,35.7,29.64,WSW,250,0.0,4.0,45,0.00,,,0.02,19,WeatherCatV1.15B25,2013-04-13 23:01:00,
2013-04-13 19:06:00,56.6,36.6,29.65,NW,318,1.0,3.0,47,0.00,,,0.02,19,WeatherCatV1.15B25,2013-04-13 23:06:00,
2013-04-13 19:11:00,56.3,35.8,29.64,West,279,2.0,3.0,46,0.00,,,0.02,16,WeatherCatV1.15B25,2013-04-13 23:11:00,
2013-04-13 19:16:00,56.0,36.1,29.64,WNW,296,0.0,1.0,47,0.00,,,0.02,11,WeatherCatV1.15B25,2013-04-13 23:16:00,
2013-04-13 19:21:00,55.8,35.9,29.64,West,279,0.0,1.0,47,0.00,,,0.02,11,WeatherCatV1.15B25,2013-04-13 23:21:00,
2013-04-13 19:26:00,55.7,36.3,29.64,West,279,0.0,0.0,48,0.00,,,0.02,7,WeatherCatV1.15B25,2013-04-13 23:26:00,
2013-04-13 19:31:00,55.6,36.7,29.64,West,279,0.0,0.0,49,0.00,,,0.02,0,WeatherCatV1.15B25,2013-04-13 23:31:00,
2013-04-13 19:36:00,55.5,37.2,29.64,West,279,0.0,0.0,50,0.00,,,0.02,0,WeatherCatV1.15B25,2013-04-13 23:36:00,
2013-04-13 19:41:00,55.3,36.5,29.64,West,279,0.0,0.0,49,0.00,,,0.02,0,WeatherCatV1.15B25,2013-04-13 23:41:00,
2013-04-13 19:46:00,55.0,36.7,29.65,West,279,0.0,0.0,50,0.00,,,0.02,0,WeatherCatV1.15B25,2013-04-13 23:46:00,
2013-04-13 19:51:00,54.8,37.5,29.65,West,279,0.0,0.0,52,0.00,,,0.02,0,WeatherCatV1.15B25,2013-04-13 23:51:00,
2013-04-13 19:56:00,54.6,38.3,29.65,West,279,0.0,0.0,54,0.00,,,0.02,0,WeatherCatV1.15B25,2013-04-13 23:56:00,
2013-04-13 20:01:00,54.3,38.9,29.65,West,279,0.0,0.0,56,0.00,,,0.02,0,WeatherCatV1.15B25,2013-04-14 00:01:00,
2013-04-13 20:06:00,53.9,39.9,29.65,West,279,0.0,0.0,59,0.00,,,0.02,0,WeatherCatV1.15B25,2013-04-14 00:06:00,
2013-04-13 20:11:00,53.5,39.5,29.65,West,279,0.0,0.0,59,0.00,,,0.02,0,WeatherCatV1.15B25,2013-04-14 00:11:00,
2013-04-13 20:16:00,53.1,39.2,29.66,West,279,0.0,0.0,59,0.00,,,0.02,0,WeatherCatV1.15B25,2013-04-14 00:16:00,
2013-04-13 20:21:00,52.7,39.6,29.66,West,279,0.0,0.0,61,0.00,,,0.02,0,WeatherCatV1.15B25,2013-04-14 00:21:00,
2013-04-13 20:26:00,52.3,40.1,29.66,West,279,0.0,0.0,63,0.00,,,0.02,0,WeatherCatV1.15B25,2013-04-14 00:26:00,
2013-04-13 20:31:00,51.8,40.0,29.66,West,279,0.0,0.0,64,0.00,,,0.02,0,WeatherCatV1.15B25,2013-04-14 00:31:00,
2013-04-13 20:36:00,51.5,40.1,29.66,West,279,0.0,0.0,65,0.00,,,0.02,0,WeatherCatV1.15B25,2013-04-14 00:36:00,
2013-04-13 20:41:00,51.0,39.7,29.67,West,279,0.0,0.0,65,0.00,,,0.02,0,WeatherCatV1.15B25,2013-04-14 00:41:00,
2013-04-13 20:46:00,50.7,40.1,29.67,West,279,0.0,0.0,67,0.00,,,0.02,0,WeatherCatV1.15B25,2013-04-14 00:46:00,
2013-04-13 20:51:00,50.4,39.5,29.67,West,279,0.0,0.0,66,0.00,,,0.02,0,WeatherCatV1.15B25,2013-04-14 00:51:00,
2013-04-13 20:56:00,50.0,39.9,29.67,West,279,0.0,0.0,68,0.00,,,0.02,0,WeatherCatV1.15B25,2013-04-14 00:56:00,
2013-04-13 21:01:00,49.6,39.5,29.67,West,279,0.0,0.0,68,0.00,,,0.02,0,WeatherCatV1.15B25,2013-04-14 01:01:00,
2013-04-13 21:06:00,49.3,39.9,29.67,West,279,0.0,0.0,70,0.00,,,0.02,0,WeatherCatV1.15B25,2013-04-14 01:06:00,
2013-04-13 21:11:00,48.9,39.6,29.68,West,279,0.0,0.0,70,0.00,,,0.02,0,WeatherCatV1.15B25,2013-04-14 01:11:00,
2013-04-13 21:16:00,48.6,39.3,29.68,West,279,0.0,0.0,70,0.00,,,0.02,0,WeatherCatV1.15B25,2013-04-14 01:16:00,
2013-04-13 21:21:00,48.2,39.2,29.68,West,279,0.0,0.0,71,0.00,,,0.02,0,WeatherCatV1.15B25,2013-04-14 01:21:00,
2013-04-13 21:26:00,47.9,39.0,29.68,West,279,0.0,0.0,71,0.00,,,0.02,0,WeatherCatV1.15B25,2013-04-14 01:26:00,
2013-04-13 21:31:00,47.5,38.9,29.68,West,279,0.0,0.0,72,0.00,,,0.02,0,WeatherCatV1.15B25,2013-04-14 01:31:00,
2013-04-13 21:37:00,47.0,38.8,29.69,West,279,0.0,0.0,73,0.00,,,0.02,0,WeatherCatV1.15B25,2013-04-14 01:37:00,
2013-04-13 21:42:00,46.7,38.2,29.69,West,279,0.0,0.0,72,0.00,,,0.02,0,WeatherCatV1.15B25,2013-04-14 01:42:00,
2013-04-13 21:47:00,46.4,38.6,29.69,West,279,0.0,0.0,74,0.00,,,0.02,0,WeatherCatV1.15B25,2013-04-14 01:47:00,
2013-04-13 21:52:00,46.0,38.2,29.70,West,279,0.0,0.0,74,0.00,,,0.02,0,WeatherCatV1.15B25,2013-04-14 01:52:00,
2013-04-13 21:57:00,45.8,38.3,29.70,West,279,0.0,0.0,75,0.00,,,0.02,0,WeatherCatV1.15B25,2013-04-14 01:57:00,
2013-04-13 22:02:00,45.5,38.0,29.70,West,279,0.0,0.0,75,0.00,,,0.02,0,WeatherCatV1.15B25,2013-04-14 02:02:00,
2013-04-13 22:07:00,45.3,38.5,29.70,West,279,0.0,0.0,77,0.00,,,0.02,0,WeatherCatV1.15B25,2013-04-14 02:07:00,
2013-04-13 22:12:00,45.2,38.4,29.71,West,279,0.0,0.0,77,0.00,,,0.02,0,WeatherCatV1.15B25,2013-04-14 02:12:00,
2013-04-13 22:17:00,45.1,38.7,29.70,West,279,0.0,0.0,78,0.00,,,0.02,0,WeatherCatV1.15B25,2013-04-14 02:17:00,
2013-04-13 22:22:00,45.0,38.9,29.71,West,279,0.0,0.0,79,0.00,,,0.02,0,WeatherCatV1.15B25,2013-04-14 02:22:00,
2013-04-13 22:27:00,45.0,38.9,29.71,West,279,0.0,0.0,79,0.00,,,0.02,0,WeatherCatV1.15B25,2013-04-14 02:27:00,
2013-04-13 22:32:00,45.0,39.2,29.71,West,279,0.0,0.0,80,0.00,,,0.02,0,WeatherCatV1.15B25,2013-04-14 02:32:00,
2013-04-13 22:37:00,44.9,39.4,29.71,West,279,0.0,0.0,81,0.00,,,0.02,0,WeatherCatV1.15B25,2013-04-14 02:37:00,
2013-04-13 22:42:00,45.0,39.5,29.71,West,279,0.0,0.0,81,0.00,,,0.02,0,WeatherCatV1.15B25,2013-04-14 02:42:00,
2013-04-13 22:47:00,45.0,39.8,29.71,West,279,0.0,0.0,82,0.00,,,0.02,0,WeatherCatV1.15B25,2013-04-14 02:47:00,
2013-04-13 22:52:00,45.0,40.2,29.71,West,279,0.0,0.0,83,0.00,,,0.02,0,WeatherCatV1.15B25,2013-04-14 02:52:00,
2013-04-13 22:57:00,45.1,40.2,29.71,West,279,0.0,0.0,83,0.00,,,0.02,0,WeatherCatV1.15B25,2013-04-14 02:57:00,
2013-04-13 23:02:00,45.1,40.2,29.71,West,279,0.0,0.0,83,0.00,,,0.02,0,WeatherCatV1.15B25,2013-04-14 03:02:00,
2013-04-13 23:07:00,45.1,40.6,29.71,West,279,0.0,0.0,84,0.00,,,0.02,0,WeatherCatV1.15B25,2013-04-14 03:07:00,
2013-04-13 23:12:00,45.2,40.7,29.72,West,279,0.0,0.0,84,0.00,,,0.02,0,WeatherCatV1.15B25,2013-04-14 03:12:00,
2013-04-13 23:17:00,45.2,40.7,29.72,West,279,0.0,0.0,84,0.00,,,0.02,0,WeatherCatV1.15B25,2013-04-14 03:17:00,
2013-04-13 23:22:00,45.3,40.8,29.72,West,279,0.0,0.0,84,0.00,,,0.02,0,WeatherCatV1.15B25,2013-04-14 03:22:00,
2013-04-13 23:27:00,45.3,40.8,29.72,West,279,0.0,0.0,84,0.00,,,0.02,0,WeatherCatV1.15B25,2013-04-14 03:27:00,
2013-04-13 23:32:00,45.4,41.2,29.71,West,279,0.0,0.0,85,0.00,,,0.02,0,WeatherCatV1.15B25,2013-04-14 03:32:00,
2013-04-13 23:37:00,45.4,41.2,29.72,West,279,0.0,0.0,85,0.00,,,0.02,0,WeatherCatV1.15B25,2013-04-14 03:37:00,
2013-04-13 23:42:00,45.5,41.3,29.72,West,279,0.0,0.0,85,0.00,,,0.02,0,WeatherCatV1.15B25,2013-04-14 03:42:00,
2013-04-13 23:47:00,45.5,40.6,29.72,West,279,0.0,0.0,83,0.00,,,0.02,0,WeatherCatV1.15B25,2013-04-14 03:47:00,
2013-04-13 23:52:00,45.6,40.7,29.72,West,279,0.0,0.0,83,0.00,,,0.02,0,WeatherCatV1.15B25,2013-04-14 03:52:00,
2013-04-13 23:57:00,45.6,41.0,29.72,West,279,0.0,0.0,84,0.00,,,0.02,0,WeatherCatV1.15B25,2013-04-14 03:57:00,